Time;durP1;ratioP1;P1;durP2;ratioP2;P2;SDS_P1;SDS_P2;PMS_P1;PMS_P2;Temp;Humidity;BMP_temperature;BMP_pressure;BME280_temperature;BME280_humidity;BME280_pressure;Samples;Min_cycle;Max_cycle;Signal;HPM_P1;HPM_P2
2024/04/06 00:02:21;;;;;;;2.40;1.00;;;;;;;13.70;100.00;100472.84;6203077;23;20024;-75
2024/04/06 00:04:49;;;;;;;2.38;1.13;;;;;;;13.71;100.00;100463.91;6182335;23;20020;-75
2024/04/06 00:07:17;;;;;;;2.08;0.77;;;;;;;13.70;100.00;100476.38;6182178;23;20063;-75
2024/04/06 00:09:45;;;;;;;3.47;1.27;;;;;;;13.68;100.00;100476.22;6183683;23;20024;-74
2024/04/06 00:12:13;;;;;;;4.88;1.25;;;;;;;13.81;100.00;100474.34;6195649;23;20025;-74
2024/04/06 00:14:40;;;;;;;5.30;0.95;;;;;;;13.73;100.00;100472.41;6201801;23;20039;-74
2024/04/06 00:17:09;;;;;;;2.08;1.23;;;;;;;13.69;100.00;100469.31;6191889;23;20422;-75
2024/04/06 00:19:38;;;;;;;2.53;1.10;;;;;;;13.67;100.00;100468.41;6156749;23;20035;-74
2024/04/06 00:22:04;;;;;;;2.13;1.10;;;;;;;13.64;100.00;100466.81;6157028;23;20482;-73
2024/04/06 00:24:33;;;;;;;2.13;0.80;;;;;;;13.62;100.00;100466.66;6188625;23;20577;-74
2024/04/06 00:27:01;;;;;;;2.17;1.05;;;;;;;13.62;100.00;100469.44;6181688;23;20090;-75
2024/04/06 00:29:28;;;;;;;2.03;0.98;;;;;;;13.59;100.00;100470.59;6181231;23;20021;-74
2024/04/06 00:31:56;;;;;;;5.85;1.50;;;;;;;13.58;100.00;100466.34;6181895;23;20052;-75
2024/04/06 00:34:25;;;;;;;2.70;0.93;;;;;;;13.55;100.00;100462.66;6156918;23;20020;-75
2024/04/06 00:36:54;;;;;;;2.95;1.13;;;;;;;13.50;100.00;100461.63;6181941;23;20029;-75
2024/04/06 00:39:22;;;;;;;4.55;1.05;;;;;;;13.48;100.00;100455.16;6182611;23;20102;-74
2024/04/06 00:41:48;;;;;;;1.75;0.98;;;;;;;13.44;100.00;100452.78;6182894;23;20036;-75
2024/04/06 00:44:16;;;;;;;5.22;1.30;;;;;;;13.40;100.00;100452.47;6190956;23;20016;-74
2024/04/06 00:46:42;;;;;;;2.95;1.10;;;;;;;13.42;100.00;100463.03;6188608;23;20052;-74
2024/04/06 00:49:10;;;;;;;3.72;1.20;;;;;;;13.40;100.00;100462.88;6186772;23;20108;-74
2024/04/06 00:51:37;;;;;;;1.92;1.00;;;;;;;13.41;100.00;100459.50;6183268;23;20507;-75
2024/04/06 00:54:05;;;;;;;7.70;1.42;;;;;;;13.40;100.00;100460.84;6184264;23;20107;-74
2024/04/06 00:56:32;;;;;;;2.97;0.98;;;;;;;13.38;100.00;100459.91;6181033;23;20025;-75
2024/04/06 00:58:59;;;;;;;1.95;0.98;;;;;;;13.37;100.00;100469.59;6181865;23;20029;-75
2024/04/06 01:01:27;;;;;;;1.15;0.75;;;;;;;13.37;100.00;100461.25;6181050;23;20020;-75
2024/04/06 01:03:54;;;;;;;1.98;1.00;;;;;;;13.33;100.00;100470.78;6156583;23;20078;-75
2024/04/06 01:06:21;;;;;;;2.08;0.80;;;;;;;13.33;100.00;100470.78;6180582;23;20097;-75
2024/04/06 01:08:50;;;;;;;6.63;1.35;;;;;;;13.34;100.00;100472.22;6155895;23;20530;-75
2024/04/06 01:11:16;;;;;;;4.22;1.13;;;;;;;13.36;100.00;100474.44;6181236;23;20107;-74
2024/04/06 01:13:43;;;;;;;2.95;0.65;;;;;;;13.38;100.00;100477.41;6180923;23;20044;-75
2024/04/06 01:16:09;;;;;;;5.68;1.38;;;;;;;13.44;100.00;100468.75;6181456;23;20059;-74
2024/04/06 01:18:37;;;;;;;4.13;1.25;;;;;;;13.47;100.00;100464.81;6182056;23;20035;-75
2024/04/06 01:21:05;;;;;;;5.63;1.30;;;;;;;13.48;100.00;100455.88;6179561;23;20055;-75
2024/04/06 01:23:35;;;;;;;1.88;0.82;;;;;;;13.59;100.00;100453.88;6181731;23;20104;-75
2024/04/06 01:26:04;;;;;;;3.83;0.80;;;;;;;13.55;100.00;100455.03;6182069;23;20013;-75
2024/04/06 01:28:31;;;;;;;3.22;1.20;;;;;;;13.51;100.00;100451.19;6182069;23;20074;-75
2024/04/06 01:30:57;;;;;;;2.10;0.75;;;;;;;13.54;100.00;100461.19;6181398;23;20024;-75
2024/04/06 01:33:25;;;;;;;2.33;0.90;;;;;;;13.44;100.00;100461.13;6183291;23;20679;-75
2024/04/06 01:35:54;;;;;;;1.70;0.80;;;;;;;13.30;100.00;100468.38;6199184;23;20092;-73
2024/04/06 01:38:22;;;;;;;2.08;0.93;;;;;;;13.19;100.00;100469.63;6209759;23;20116;-74
2024/04/06 01:40:48;;;;;;;3.85;0.95;;;;;;;13.10;100.00;100470.31;6209233;23;20032;-73
2024/04/06 01:43:17;;;;;;;1.67;0.80;;;;;;;13.03;100.00;100457.22;6209212;23;20056;-73
2024/04/06 01:45:43;;;;;;;7.03;1.20;;;;;;;12.99;100.00;100454.13;6207655;23;20027;-74
2024/04/06 01:48:11;;;;;;;4.43;1.10;;;;;;;12.97;100.00;100456.75;6198328;23;20065;-74
2024/04/06 01:50:37;;;;;;;1.70;1.00;;;;;;;13.00;100.00;100453.53;6181293;23;20618;-75
2024/04/06 01:53:05;;;;;;;1.65;0.85;;;;;;;13.02;100.00;100458.53;6181104;23;20028;-75
2024/04/06 01:55:31;;;;;;;2.00;0.95;;;;;;;12.96;100.00;100449.69;6180963;23;20110;-74
2024/04/06 01:57:58;;;;;;;1.80;0.73;;;;;;;12.93;100.00;100448.06;6156340;23;20020;-74
2024/04/06 02:00:26;;;;;;;2.25;0.98;;;;;;;12.94;100.00;100447.50;6181326;23;20103;-74
2024/04/06 02:02:54;;;;;;;3.40;1.08;;;;;;;12.99;100.00;100446.50;6180841;23;20413;-74
2024/04/06 02:05:21;;;;;;;1.67;0.70;;;;;;;13.03;100.00;100444.03;6180344;23;20048;-75
2024/04/06 02:07:48;;;;;;;1.10;0.52;;;;;;;13.05;100.00;100443.44;6205507;23;20025;-75
2024/04/06 02:10:14;;;;;;;1.60;0.90;;;;;;;13.00;100.00;100427.72;6180366;23;20066;-75
2024/04/06 02:12:43;;;;;;;2.03;1.13;;;;;;;13.02;100.00;100436.25;6180388;23;20657;-74
2024/04/06 02:15:09;;;;;;;3.40;0.90;;;;;;;13.03;100.00;100437.72;6180242;23;20017;-74
2024/04/06 02:17:38;;;;;;;1.55;0.77;;;;;;;13.10;100.00;100426.50;6205704;23;20359;-75
2024/04/06 02:20:06;;;;;;;2.53;1.13;;;;;;;13.15;100.00;100433.09;6182173;23;20071;-74
2024/04/06 02:22:33;;;;;;;2.40;1.15;;;;;;;13.08;100.00;100431.13;6181644;23;20021;-74
2024/04/06 02:25:00;;;;;;;4.50;0.90;;;;;;;13.11;100.00;100421.66;6182174;23;20467;-75
2024/04/06 02:27:27;;;;;;;1.67;0.55;;;;;;;13.15;100.00;100419.16;6182823;23;20029;-75
2024/04/06 02:29:54;;;;;;;1.75;0.40;;;;;;;13.22;100.00;100417.59;6182679;23;20029;-75
2024/04/06 02:32:21;;;;;;;2.10;0.57;;;;;;;13.23;100.00;100417.03;6157984;23;20021;-75
2024/04/06 02:34:49;;;;;;;2.63;0.95;;;;;;;13.30;100.00;100430.13;6182658;23;20021;-75
2024/04/06 02:37:16;;;;;;;1.70;0.60;;;;;;;13.43;100.00;100439.44;6182494;23;20826;-75
2024/04/06 02:39:42;;;;;;;1.15;0.47;;;;;;;13.53;100.00;100445.78;6182590;23;20463;-74
2024/04/06 02:42:10;;;;;;;3.10;0.60;;;;;;;13.57;100.00;100448.88;6182434;23;20025;-74
2024/04/06 02:44:38;;;;;;;0.93;0.55;;;;;;;13.55;100.00;100451.53;6158453;23;20028;-74
2024/04/06 02:47:05;;;;;;;2.40;0.85;;;;;;;13.55;100.00;100454.31;6182083;23;20031;-74
2024/04/06 02:49:32;;;;;;;1.77;0.50;;;;;;;13.52;100.00;100469.38;6158578;23;20024;-74
2024/04/06 02:52:00;;;;;;;1.88;0.65;;;;;;;13.52;100.00;100472.19;6182643;23;20039;-75
2024/04/06 02:54:27;;;;;;;2.17;0.60;;;;;;;13.47;100.00;100467.59;6183004;23;20025;-75
2024/04/06 02:56:55;;;;;;;1.60;0.52;;;;;;;13.39;100.00;100472.56;6182669;23;20024;-74
2024/04/06 02:59:22;;;;;;;1.23;0.45;;;;;;;13.22;100.00;100465.69;6183956;23;20021;-74
2024/04/06 03:01:49;;;;;;;1.10;0.43;;;;;;;13.13;100.00;100472.69;6182930;23;20032;-74
2024/04/06 03:04:16;;;;;;;1.35;0.50;;;;;;;13.00;100.00;100475.06;6182361;23;20021;-75
2024/04/06 03:06:43;;;;;;;0.75;0.30;;;;;;;12.92;100.00;100480.75;6157453;23;20048;-74
2024/04/06 03:09:13;;;;;;;1.67;0.50;;;;;;;12.85;100.00;100485.09;6182274;23;20035;-74
2024/04/06 03:11:42;;;;;;;3.10;0.57;;;;;;;12.78;100.00;100469.19;6183328;23;20078;-75
2024/04/06 03:14:08;;;;;;;1.85;0.40;;;;;;;12.69;100.00;100465.03;6184222;23;20020;-74
2024/04/06 03:16:37;;;;;;;0.77;0.38;;;;;;;12.63;100.00;100463.81;6184389;23;20031;-74
2024/04/06 03:19:03;;;;;;;0.82;0.40;;;;;;;12.55;100.00;100465.94;6184557;23;20028;-73
2024/04/06 03:21:31;;;;;;;1.50;0.65;;;;;;;12.51;100.00;100473.97;6183812;23;20028;-74
2024/04/06 03:23:58;;;;;;;2.58;0.52;;;;;;;12.45;100.00;100465.88;6192284;23;20025;-75
2024/04/06 03:26:30;;;;;;;2.20;0.93;;;;;;;12.54;100.00;100458.91;6171352;23;20114;-74
2024/04/06 03:28:57;;;;;;;1.75;0.45;;;;;;;12.52;100.00;100448.34;6193627;23;20028;-74
2024/04/06 03:31:24;;;;;;;1.98;0.45;;;;;;;12.60;100.00;100443.44;6181456;23;20090;-74
2024/04/06 03:33:50;;;;;;;2.05;0.40;;;;;;;12.48;100.00;100453.59;6182190;23;20024;-74
2024/04/06 03:36:18;;;;;;;0.77;0.30;;;;;;;12.38;100.00;100456.28;6181859;23;20028;-74
2024/04/06 03:38:47;;;;;;;2.22;0.40;;;;;;;12.30;100.00;100460.47;6182925;23;20032;-75
2024/04/06 03:41:16;;;;;;;1.45;0.47;;;;;;;12.20;100.00;100468.72;6182857;23;20471;-75
2024/04/06 03:43:45;;;;;;;1.35;0.40;;;;;;;12.09;100.00;100464.38;6182898;23;20039;-75
2024/04/06 03:46:11;;;;;;;0.77;0.30;;;;;;;12.01;100.00;100469.25;6157762;23;20395;-73
2024/04/06 03:48:40;;;;;;;0.90;0.40;;;;;;;11.95;100.00;100475.03;6182694;23;20029;-74
2024/04/06 03:51:07;;;;;;;2.85;0.32;;;;;;;11.90;100.00;100473.22;6182697;23;20021;-75
2024/04/06 03:53:38;;;;;;;1.35;0.60;;;;;;;11.86;100.00;100475.63;6182817;23;20647;-77
2024/04/06 03:56:05;;;;;;;1.58;0.55;;;;;;;11.80;100.00;100478.66;6181286;23;20078;-76
2024/04/06 03:58:32;;;;;;;1.23;0.43;;;;;;;11.75;100.00;100484.44;6181425;23;20028;-76
2024/04/06 04:01:01;;;;;;;2.83;0.88;;;;;;;11.69;100.00;100486.69;6181349;23;20033;-75
2024/04/06 04:03:28;;;;;;;4.57;0.70;;;;;;;11.62;100.00;100485.44;6181954;23;20352;-76
2024/04/06 04:05:55;;;;;;;3.75;1.05;;;;;;;11.53;100.00;100481.25;6181160;23;20031;-75
2024/04/06 04:08:22;;;;;;;1.13;0.40;;;;;;;11.44;100.00;100481.84;6181952;23;20029;-75
2024/04/06 04:10:49;;;;;;;2.55;0.70;;;;;;;11.36;100.00;100476.34;6181782;23;20028;-76
2024/04/06 04:13:18;;;;;;;1.08;0.30;;;;;;;11.29;100.00;100481.94;6181531;23;20028;-75
2024/04/06 04:15:45;;;;;;;2.83;0.68;;;;;;;11.23;100.00;100486.97;6156443;23;20414;-75
2024/04/06 04:18:13;;;;;;;1.58;0.57;;;;;;;11.18;100.00;100489.41;6180823;23;20031;-76
2024/04/06 04:20:41;;;;;;;1.48;0.52;;;;;;;11.10;100.00;100474.81;6181097;23;20099;-75
2024/04/06 04:23:08;;;;;;;1.55;0.70;;;;;;;11.04;100.00;100481.88;6180423;23;20032;-72
2024/04/06 04:25:35;;;;;;;4.03;0.65;;;;;;;10.96;100.00;100477.09;6182289;23;20021;-74
2024/04/06 04:28:02;;;;;;;1.10;0.38;;;;;;;10.92;100.00;100473.94;6182168;23;20134;-74
2024/04/06 04:30:30;;;;;;;1.02;0.38;;;;;;;10.93;100.00;100475.44;6157038;23;20024;-74
2024/04/06 04:32:56;;;;;;;2.65;0.60;;;;;;;10.93;100.00;100480.25;6182843;23;20397;-74
2024/04/06 04:35:28;;;;;;;1.25;0.40;;;;;;;10.97;100.00;100480.59;6183136;23;20490;-74
2024/04/06 04:37:54;;;;;;;1.13;0.47;;;;;;;11.00;100.00;100485.03;6184341;23;20078;-74
2024/04/06 04:40:22;;;;;;;1.60;0.43;;;;;;;11.01;100.00;100485.78;6209417;23;20028;-74
2024/04/06 04:42:49;;;;;;;1.95;0.88;;;;;;;11.02;100.00;100493.53;6185126;23;20366;-74
2024/04/06 04:45:16;;;;;;;5.38;0.57;;;;;;;11.02;100.00;100498.34;6218595;23;20518;-75
2024/04/06 04:47:42;;;;;;;1.35;0.68;;;;;;;11.00;100.00;100495.41;6224740;23;20430;-75
2024/04/06 04:50:11;;;;;;;0.45;0.20;;;;;;;10.92;100.00;100500.97;6167575;23;20059;-76
2024/04/06 04:52:39;;;;;;;0.80;0.45;;;;;;;10.84;100.00;100501.00;6220381;23;20021;-74
2024/04/06 04:55:07;;;;;;;1.88;0.70;;;;;;;10.79;100.00;100498.44;6169212;23;20020;-74
2024/04/06 04:57:33;;;;;;;1.08;0.43;;;;;;;10.76;100.00;100501.03;6186882;23;20028;-75
2024/04/06 05:00:00;;;;;;;0.43;0.25;;;;;;;10.72;100.00;100506.22;6181446;23;20024;-74
2024/04/06 05:02:28;;;;;;;2.67;0.40;;;;;;;10.70;100.00;100510.84;6181590;23;20031;-75
2024/04/06 05:04:56;;;;;;;1.35;0.57;;;;;;;10.67;100.00;100518.25;6181681;23;20652;-74
2024/04/06 05:07:22;;;;;;;1.00;0.50;;;;;;;10.62;100.00;100513.63;6207216;23;20100;-74
2024/04/06 05:09:53;;;;;;;1.33;0.75;;;;;;;10.54;100.00;100521.97;6181848;23;20024;-76
2024/04/06 05:12:20;;;;;;;3.92;1.23;;;;;;;10.50;100.00;100518.09;6205976;23;20652;-75
2024/04/06 05:14:48;;;;;;;1.58;0.73;;;;;;;10.48;100.00;100517.91;6180331;23;20032;-74
2024/04/06 05:17:15;;;;;;;3.05;0.80;;;;;;;10.47;100.00;100517.19;6181967;23;20021;-75
2024/04/06 05:19:43;;;;;;;0.75;0.35;;;;;;;10.49;100.00;100516.63;6181670;23;20032;-75
2024/04/06 05:22:09;;;;;;;1.20;0.47;;;;;;;10.52;100.00;100515.50;6180285;23;20099;-74
2024/04/06 05:24:38;;;;;;;1.27;0.63;;;;;;;10.57;100.00;100517.34;6156778;23;20024;-74
2024/04/06 05:27:07;;;;;;;0.75;0.30;;;;;;;10.61;100.00;100512.19;6181720;23;20024;-74
2024/04/06 05:29:35;;;;;;;4.60;0.73;;;;;;;10.66;100.00;100522.34;6181178;23;20035;-75
2024/04/06 05:32:01;;;;;;;2.08;0.63;;;;;;;10.70;100.00;100519.91;6205638;23;20031;-75
2024/04/06 05:34:29;;;;;;;0.90;0.52;;;;;;;10.79;100.00;100524.16;6180569;23;20028;-75
2024/04/06 05:36:55;;;;;;;1.35;0.70;;;;;;;10.86;100.00;100536.53;6180721;23;20021;-75
2024/04/06 05:39:23;;;;;;;6.35;0.93;;;;;;;10.84;100.00;100533.59;6181823;23;20147;-74
2024/04/06 05:41:49;;;;;;;3.42;0.57;;;;;;;10.92;100.00;100531.50;6206595;23;20487;-74
2024/04/06 05:44:22;;;;;;;1.05;0.43;;;;;;;10.97;100.00;100531.31;6181540;23;20068;-73
2024/04/06 05:46:48;;;;;;;5.13;0.73;;;;;;;11.04;100.00;100529.81;6181594;23;20024;-73
2024/04/06 05:49:16;;;;;;;0.93;0.50;;;;;;;11.11;100.00;100529.03;6181873;23;20036;-75
2024/04/06 05:51:42;;;;;;;0.98;0.50;;;;;;;11.19;100.00;100529.00;6181937;23;20514;-74
2024/04/06 05:54:10;;;;;;;2.53;0.50;;;;;;;11.26;100.00;100521.97;6207242;23;20024;-75
2024/04/06 05:56:36;;;;;;;1.23;0.77;;;;;;;11.29;100.00;100531.94;6183542;23;20027;-75
2024/04/06 05:59:05;;;;;;;1.52;0.65;;;;;;;11.33;100.00;100526.75;6158976;23;20665;-76
2024/04/06 06:01:35;;;;;;;1.40;0.68;;;;;;;11.40;100.00;100520.41;6183715;23;20028;-75
2024/04/06 06:04:03;;;;;;;1.83;0.80;;;;;;;11.51;100.00;100533.84;6182976;23;20052;-76
2024/04/06 06:06:30;;;;;;;2.65;0.60;;;;;;;11.66;100.00;100529.53;6182923;23;20024;-75
2024/04/06 06:08:57;;;;;;;1.65;0.85;;;;;;;11.82;100.00;100523.31;6183608;23;20394;-74
2024/04/06 06:11:23;;;;;;;6.18;1.10;;;;;;;12.06;100.00;100537.78;6183126;23;20020;-75
2024/04/06 06:13:51;;;;;;;0.98;0.57;;;;;;;12.32;100.00;100538.53;6184407;23;20861;-74
2024/04/06 06:16:19;;;;;;;0.80;0.50;;;;;;;12.61;100.00;100538.81;6182153;23;20048;-76
2024/04/06 06:18:47;;;;;;;2.03;1.00;;;;;;;12.85;100.00;100540.78;6183445;23;20024;-73
2024/04/06 06:21:15;;;;;;;3.97;0.98;;;;;;;13.18;100.00;100540.59;6181311;23;20032;-74
2024/04/06 06:23:42;;;;;;;1.88;0.73;;;;;;;13.53;100.00;100537.78;6159352;23;20020;-74
2024/04/06 06:26:09;;;;;;;1.65;0.70;;;;;;;13.83;100.00;100536.59;6183379;23;20522;-75
2024/04/06 06:28:36;;;;;;;5.63;0.82;;;;;;;14.06;100.00;100538.28;6208533;23;20495;-74
2024/04/06 06:31:04;;;;;;;3.20;0.82;;;;;;;14.23;100.00;100538.19;6184133;23;20028;-74
2024/04/06 06:33:30;;;;;;;3.58;0.98;;;;;;;14.34;100.00;100539.69;6184225;23;20020;-74
2024/04/06 06:36:00;;;;;;;3.22;0.90;;;;;;;14.42;100.00;100551.47;6165030;23;20090;-74
2024/04/06 06:38:27;;;;;;;1.15;0.63;;;;;;;14.50;100.00;100546.50;6200607;23;20048;-73
2024/04/06 06:40:54;;;;;;;3.40;0.73;;;;;;;14.80;100.00;100558.47;6221819;23;20028;-74
2024/04/06 06:43:21;;;;;;;3.90;0.88;;;;;;;15.32;100.00;100558.00;6182780;23;20260;-73
2024/04/06 06:45:48;;;;;;;1.90;0.90;;;;;;;15.96;100.00;100562.44;6181570;23;20025;-74
2024/04/06 06:48:15;;;;;;;2.45;0.77;;;;;;;16.54;100.00;100562.88;6182055;23;20025;-74
2024/04/06 06:50:42;;;;;;;4.13;0.88;;;;;;;17.06;100.00;100558.53;6182511;23;20497;-74
2024/04/06 06:53:10;;;;;;;1.75;0.63;;;;;;;17.57;100.00;100564.50;6183211;23;20459;-74
2024/04/06 06:55:38;;;;;;;1.27;0.60;;;;;;;17.74;100.00;100571.13;6156881;23;20044;-74
2024/04/06 06:58:04;;;;;;;2.55;0.60;;;;;;;17.93;100.00;100565.34;6182587;23;20028;-74
2024/04/06 07:00:31;;;;;;;2.28;1.00;;;;;;;18.02;100.00;100570.06;6182162;23;20054;-73
2024/04/06 07:02:58;;;;;;;6.13;1.30;;;;;;;18.04;100.00;100570.19;6182930;23;20024;-74
2024/04/06 07:05:26;;;;;;;4.63;1.10;;;;;;;18.31;100.00;100579.50;6181332;23;20024;-74
2024/04/06 07:07:54;;;;;;;1.98;0.60;;;;;;;18.62;100.00;100574.31;6157925;23;20059;-74
2024/04/06 07:10:23;;;;;;;0.77;0.43;;;;;;;18.75;100.00;100575.75;6182041;23;20021;-74
2024/04/06 07:12:50;;;;;;;1.65;0.60;;;;;;;18.67;100.00;100572.47;6183819;23;20028;-74
2024/04/06 07:15:17;;;;;;;2.72;0.60;;;;;;;18.47;100.00;100569.94;6182377;23;20027;-74
2024/04/06 07:17:45;;;;;;;2.22;0.60;;;;;;;18.52;100.00;100564.53;6183248;23;20031;-74
2024/04/06 07:20:12;;;;;;;4.32;0.93;;;;;;;18.40;100.00;100576.56;6182503;23;20059;-74
2024/04/06 07:22:39;;;;;;;2.35;0.70;;;;;;;18.17;100.00;100577.28;6181162;23;20123;-74
2024/04/06 07:25:07;;;;;;;5.05;0.57;;;;;;;18.00;100.00;100574.84;6181795;23;20151;-74
2024/04/06 07:27:36;;;;;;;1.33;0.60;;;;;;;17.84;100.00;100571.78;6182627;23;20031;-75
2024/04/06 07:30:05;;;;;;;1.50;0.57;;;;;;;17.88;100.00;100577.66;6207510;23;20075;-77
2024/04/06 07:32:35;;;;;;;1.85;0.65;;;;;;;18.03;100.00;100582.06;6207467;23;20024;-76
2024/04/06 07:35:02;;;;;;;2.20;0.73;;;;;;;18.31;100.00;100574.59;6181237;23;20139;-76
2024/04/06 07:37:29;;;;;;;1.23;0.63;;;;;;;18.69;100.00;100589.44;6181644;23;20028;-75
2024/04/06 07:39:58;;;;;;;4.43;0.50;;;;;;;19.12;100.00;100572.22;6181748;23;20020;-76
2024/04/06 07:42:25;;;;;;;4.25;0.70;;;;;;;19.30;100.00;100573.22;6181727;23;20067;-75
2024/04/06 07:44:53;;;;;;;3.75;0.60;;;;;;;19.72;100.00;100574.13;6180243;23;20025;-76
2024/04/06 07:47:20;;;;;;;1.03;0.40;;;;;;;19.83;100.00;100574.66;6184187;23;20028;-76
2024/04/06 07:49:47;;;;;;;1.08;0.47;;;;;;;20.13;100.00;100572.72;6181751;23;20058;-76
2024/04/06 07:52:14;;;;;;;2.88;0.68;;;;;;;20.27;100.00;100567.06;6180412;23;20025;-75
2024/04/06 07:54:42;;;;;;;1.45;0.60;;;;;;;19.98;100.00;100562.81;6181674;23;20044;-75
2024/04/06 07:57:08;;;;;;;1.60;0.57;;;;;;;20.03;100.00;100550.41;6182009;23;20036;-75
2024/04/06 07:59:36;;;;;;;1.55;0.45;;;;;;;20.03;100.00;100561.66;6157062;23;20028;-75
2024/04/06 08:02:04;;;;;;;4.55;0.52;;;;;;;19.98;100.00;100565.63;6181659;23;20446;-76
2024/04/06 08:04:32;;;;;;;2.72;0.93;;;;;;;20.53;100.00;100559.97;6181371;23;20542;-76
2024/04/06 08:06:59;;;;;;;1.88;0.52;;;;;;;20.87;100.00;100567.94;6181497;23;20020;-76
2024/04/06 08:09:26;;;;;;;3.80;0.40;;;;;;;21.49;100.00;100572.34;6181677;23;20024;-76
2024/04/06 08:11:52;;;;;;;1.70;0.45;;;;;;;21.74;100.00;100565.72;6181710;23;20079;-76
2024/04/06 08:14:22;;;;;;;1.83;0.70;;;;;;;21.42;100.00;100556.50;6181088;23;20024;-76
2024/04/06 08:16:49;;;;;;;2.22;0.60;;;;;;;21.03;100.00;100544.09;6181120;23;20807;-75
2024/04/06 08:19:19;;;;;;;8.02;0.68;;;;;;;21.35;100.00;100541.34;6156626;23;20459;-75
2024/04/06 08:21:45;;;;;;;1.08;0.45;;;;;;;21.59;100.00;100538.94;6205000;23;20043;-75
2024/04/06 08:24:13;;;;;;;2.25;0.50;;;;;;;21.66;94.02;100539.94;6206569;23;20083;-76
2024/04/06 08:26:39;;;;;;;2.17;0.88;;;;;;;21.72;96.70;100542.31;6184776;23;20048;-76
2024/04/06 08:29:07;;;;;;;3.40;0.68;;;;;;;21.77;100.00;100539.03;6183960;23;20394;-76
2024/04/06 08:31:33;;;;;;;0.95;0.43;;;;;;;22.06;88.77;100535.34;6186241;23;20024;-75
2024/04/06 08:34:01;;;;;;;1.38;0.40;;;;;;;22.27;86.03;100534.16;6183358;23;20483;-75
2024/04/06 08:36:29;;;;;;;1.50;0.50;;;;;;;22.04;86.21;100531.72;6181016;23;20032;-75
2024/04/06 08:38:56;;;;;;;1.05;0.50;;;;;;;22.06;86.50;100529.72;6181304;23;20021;-76
2024/04/06 08:41:24;;;;;;;0.73;0.38;;;;;;;21.85;89.88;100533.00;6181675;23;20025;-77
2024/04/06 08:43:56;;;;;;;2.00;0.63;;;;;;;22.17;86.85;100528.03;6181035;23;20430;-75
2024/04/06 08:46:23;;;;;;;2.22;0.75;;;;;;;22.30;88.41;100518.75;6181569;23;20017;-74
2024/04/06 08:48:51;;;;;;;1.42;0.65;;;;;;;22.00;86.85;100529.44;6181011;23;20497;-74
2024/04/06 08:51:19;;;;;;;1.48;0.50;;;;;;;22.41;86.41;100513.53;6181315;23;20025;-75
2024/04/06 08:53:48;;;;;;;2.60;0.57;;;;;;;22.72;87.24;100518.31;6181728;23;20483;-74
2024/04/06 08:56:16;;;;;;;1.00;0.40;;;;;;;22.63;86.62;100525.03;6181020;23;20035;-75
2024/04/06 08:58:43;;;;;;;0.90;0.32;;;;;;;22.49;78.04;100522.34;6181416;23;20103;-75
2024/04/06 09:01:11;;;;;;;0.60;0.32;;;;;;;22.71;82.47;100517.59;6181510;23;20032;-75
2024/04/06 09:03:40;;;;;;;1.20;0.70;;;;;;;22.78;84.54;100526.31;6181037;23;20040;-75
2024/04/06 09:06:15;;;;;;;1.27;0.38;;;;;;;23.28;72.78;100538.94;6180352;23;20113;-76
2024/04/06 09:08:43;;;;;;;0.90;0.45;;;;;;;23.69;72.56;100519.91;6205888;23;20429;-74
2024/04/06 09:11:15;;;;;;;1.58;0.43;;;;;;;23.18;82.43;100516.63;6182225;23;20328;-75
2024/04/06 09:13:44;;;;;;;4.13;0.65;;;;;;;23.34;76.00;100519.38;6181292;23;20035;-75
2024/04/06 09:16:10;;;;;;;2.72;0.50;;;;;;;23.32;73.35;100504.41;6181992;23;20028;-76
2024/04/06 09:18:39;;;;;;;3.40;0.40;;;;;;;23.66;72.81;100507.03;6184181;23;20025;-76
2024/04/06 09:21:06;;;;;;;2.72;0.50;;;;;;;23.95;67.46;100500.31;6181918;23;20031;-76
2024/04/06 09:23:34;;;;;;;1.33;0.40;;;;;;;24.24;62.81;100504.88;6185049;23;20078;-76
2024/04/06 09:26:02;;;;;;;1.17;0.38;;;;;;;24.15;67.20;100501.00;6189475;23;20105;-76
2024/04/06 09:28:31;;;;;;;0.80;0.40;;;;;;;23.70;62.02;100502.25;6185088;23;20028;-75
2024/04/06 09:30:58;;;;;;;1.00;0.35;;;;;;;23.77;72.53;100500.41;6182949;23;20028;-76
2024/04/06 09:33:28;;;;;;;1.00;0.40;;;;;;;23.98;73.61;100501.84;6205491;23;20015;-75
2024/04/06 09:35:54;;;;;;;2.50;0.70;;;;;;;24.13;66.04;100495.28;6181678;23;20524;-76
2024/04/06 09:38:22;;;;;;;2.17;0.90;;;;;;;24.16;65.11;100493.22;6181400;23;20467;-77
2024/04/06 09:40:51;;;;;;;1.13;0.50;;;;;;;24.04;67.59;100482.94;6182046;23;20347;-76
2024/04/06 09:43:19;;;;;;;1.20;0.40;;;;;;;23.91;69.17;100481.09;6182171;23;20044;-76
2024/04/06 09:45:48;;;;;;;2.28;0.50;;;;;;;24.60;74.10;100490.47;6181490;23;20017;-75
2024/04/06 09:48:16;;;;;;;2.72;0.50;;;;;;;24.93;68.30;100485.84;6158152;23;20101;-76
2024/04/06 09:50:51;;;;;;;4.80;0.65;;;;;;;24.64;59.07;100484.94;6186766;23;20036;-77
2024/04/06 09:55:24;;;;;;;1.40;0.40;;;;;;;24.88;57.39;100491.38;6199793;23;20028;-77
2024/04/06 09:58:48;;;;;;;;;;;;;;;;;;;;;
2024/04/06 12:36:40;;;;;;;0.85;0.30;;;;;;;28.23;33.64;100335.50;5877089;24;20381;-77
2024/04/06 13:08:34;;;;;;;1.10;0.35;;;;;;;27.82;32.22;100323.50;5760708;24;20087;-77
2024/04/06 13:11:19;;;;;;;3.75;0.82;;;;;;;28.18;31.20;100314.06;5834240;24;20029;-77
2024/04/06 13:13:52;;;;;;;0.73;0.20;;;;;;;28.43;30.35;100317.25;5899971;24;20062;-76
2024/04/06 13:16:25;;;;;;;1.52;0.30;;;;;;;28.51;27.61;100320.22;5876405;23;20032;-77
2024/04/06 13:46:54;;;;;;;0.68;0.20;;;;;;;29.69;28.95;100262.97;5760259;24;20141;-76
2024/04/06 13:50:23;;;;;;;1.65;0.20;;;;;;;29.34;29.56;100245.50;5818478;24;20459;-76
2024/04/06 13:54:01;;;;;;;1.80;0.20;;;;;;;29.79;28.90;100245.88;5925364;23;20558;-76
2024/04/06 14:05:08;;;;;;;1.05;0.30;;;;;;;29.20;33.14;100220.38;5892803;24;20060;-76
2024/04/06 14:07:58;;;;;;;1.63;0.40;;;;;;;29.94;31.94;100233.09;5821377;24;20096;-75
2024/04/06 14:10:28;;;;;;;0.90;0.30;;;;;;;29.53;32.30;100221.38;5900865;23;20029;-75
2024/04/06 14:12:58;;;;;;;1.58;0.25;;;;;;;29.00;33.00;100220.88;6005913;23;20027;-76
2024/04/06 14:15:28;;;;;;;1.67;0.50;;;;;;;29.38;32.21;100208.41;5982124;23;20470;-75
2024/04/06 14:17:57;;;;;;;1.83;0.55;;;;;;;29.18;31.65;100199.66;6006466;23;20118;-76
2024/04/06 14:20:28;;;;;;;1.45;0.47;;;;;;;28.90;34.06;100184.41;6030264;23;20490;-77
2024/04/06 14:22:55;;;;;;;1.20;0.30;;;;;;;28.86;34.60;100187.22;6005196;23;20029;-76
2024/04/06 14:25:23;;;;;;;1.35;0.22;;;;;;;29.04;32.59;100191.66;6029477;23;20029;-76
2024/04/06 14:27:49;;;;;;;3.13;0.82;;;;;;;29.17;32.46;100198.22;6029932;23;20379;-75
2024/04/06 14:30:32;;;;;;;1.33;0.40;;;;;;;28.89;33.60;100188.69;6006541;23;20077;-75
2024/04/06 14:32:59;;;;;;;0.90;0.30;;;;;;;28.72;34.13;100193.50;6006380;23;20343;-76
2024/04/06 14:35:28;;;;;;;1.38;0.45;;;;;;;29.35;32.89;100189.81;6006137;23;20462;-75
2024/04/06 14:37:55;;;;;;;0.80;0.47;;;;;;;28.91;32.80;100182.28;6078168;23;20048;-75
2024/04/06 14:40:22;;;;;;;1.70;0.40;;;;;;;28.78;31.95;100172.84;6085910;23;20034;-75
2024/04/06 14:42:49;;;;;;;1.25;0.38;;;;;;;28.48;32.15;100182.53;6074227;23;20030;-75
2024/04/06 14:45:19;;;;;;;1.60;0.43;;;;;;;28.26;33.86;100185.84;6065220;23;20030;-75
2024/04/06 14:47:46;;;;;;;1.45;0.52;;;;;;;28.29;34.46;100169.47;6065818;23;20023;-75
2024/04/06 14:50:16;;;;;;;1.35;0.50;;;;;;;28.50;33.36;100176.13;6065123;23;20356;-75
2024/04/06 14:52:44;;;;;;;0.93;0.32;;;;;;;28.63;33.58;100174.84;6042316;23;20838;-75
2024/04/06 14:55:11;;;;;;;1.05;0.35;;;;;;;28.30;35.09;100177.31;6065260;23;20030;-75
2024/04/06 14:57:38;;;;;;;0.73;0.40;;;;;;;28.09;34.41;100184.16;6065581;23;20023;-74
2024/04/06 15:00:11;;;;;;;2.10;0.38;;;;;;;28.21;34.92;100190.03;6041378;23;20786;-74
2024/04/06 15:02:38;;;;;;;0.77;0.30;;;;;;;28.00;34.42;100194.03;6065119;23;20037;-75
2024/04/06 15:05:07;;;;;;;0.75;0.20;;;;;;;27.93;34.03;100196.09;6064504;23;20022;-75
2024/04/06 15:07:33;;;;;;;;;;;;;;;27.80;35.46;100195.19;6065905;23;20027;-74
2024/04/06 15:10:04;;;;;;;0.80;0.30;;;;;;;28.29;33.75;100195.84;6065143;23;19927;-74
2024/04/06 15:12:31;;;;;;;0.80;0.30;;;;;;;28.11;34.80;100187.06;6065251;23;20023;-74